Wednesday, November 26, 2014, 4:16 PM EST

KRDG, Reading Regional Airport

Location: Reading, PA, United States Lat: 40.367
Local Time: 4:16 PM EST (21:16 GMT) Lon: -75.967
Time Zone: US/Eastern Elev: 344 ft

Show me the last for .
Show Decoded

2014-11-26 15:54 METAR KRDG 262054Z 34009KT 1 1/2SM -SN BR BKN006 OVC020 01/00 A2989 RMK AO2 SFC
                 VIS 2 1/2 SLP129 P0002 60005 T00110000 56027 =
2014-11-26 15:23 METAR KRDG 262023Z 34008KT 1 1/2SM R36/5500VP6000FT -SN BR BKN004 BKN009 OVC019
                 01/M01 A2990 RMK AO2 P0001 T00111006 =
2014-11-26 14:54 METAR KRDG 261954Z 02005KT 1 1/2SM -SN BR BKN005 BKN014 OVC022 01/00 A2990 RMK
                 AO2 SFC VIS 3 SLP132 P0002 T00110000 =
2014-11-26 14:27 METAR KRDG 261927Z 01005KT 1 1/2SM -SN BR BKN005 OVC020 01/00 A2992 RMK AO2 SFC
                 VIS 5 P0001 T00110000 =
2014-11-26 13:54 METAR KRDG 261854Z 03007KT 1 1/4SM -SN BR BKN003 OVC017 01/M01 A2991 RMK AO2 TWR
                 VIS 1 1/2 SLP137 P0001 T00111006 =
2014-11-26 13:22 METAR KRDG 261822Z 03008KT 1 1/2SM R36/4500VP6000FT -SN BR OVC005 01/M01 A2995 =
2014-11-26 13:08 METAR KRDG 261808Z 02004KT 1 1/2SM -SN BR OVC003 01/00 A2998 RMK AO2 SFC VIS 2
                 1/2 P0000 T00110000 =
2014-11-26 12:54 METAR KRDG 261754Z 05005KT 1 1/4SM R36/4500VP6000FT -SN BR OVC002 01/00 A2997
                 RMK AO2 TWR VIS 1 1/2 SLP158 P0001 60035 T00110000 10056 20011 58037 =
2014-11-26 12:47 METAR KRDG 261747Z 03003KT 1SM R36/4500V5500FT -SN BR OVC002 01/00 A2997 RMK AO2
                 TWR VIS 1 1/2 P0001 T00110000 =
2014-11-26 12:44 METAR KRDG 261744Z 02004KT 3/4SM R36/4500V5000FT -SN BR OVC003 01/M01 A2997 RMK
                 AO2 TWR VIS 1 1/2 PRESFR P0000 T00111006 =
2014-11-26 12:15 METAR KRDG 261715Z 01003KT 1/2SM SN FG OVC004 01/00 A3003 RMK AO2 TWR VIS 1 1/2
                 P0000 T00110000 RVRNO =
2014-11-26 12:07 METAR KRDG 261707Z 02004KT 3/4SM -SN BR BKN004 OVC008 01/00 A3003 RMK AO2 TWR
                 VIS 1 1/2 P0000 T00110000 RVRNO =
2014-11-26 11:54 METAR KRDG 261654Z 36004KT 1 1/4SM R36/4000VP6000FT -SN BR OVC007 01/00 A3004 =
2014-11-26 10:54 METAR KRDG 261554Z 02007KT 1 1/2SM -SN BR OVC008 01/00 A3007 RMK AO2 SFC VIS 1
                 3/4 RAE32 SLP192 P0005 T00110000 =
2014-11-26 10:43 METAR KRDG 261543Z 35007KT 1 1/2SM -SN BR OVC010 01/M01 A3009 RMK AO2 SFC VIS 2
                 RAE32 P0004 T00111006 =
2014-11-26 10:01 METAR KRDG 261501Z 02004KT 2SM R36/5000VP6000FT -SNRA BR OVC008 02/00 A3008 RMK
                 AO2 P0001 T00170000 =
2014-11-26 09:54 METAR KRDG 261454Z 04005KT 3SM -SNRA BR OVC008 02/00 A3008 RMK AO2 SNB05E15B47
                 PRESFR SLP196 P0013 60027 T00170000 56014 =
2014-11-26 08:54 METAR KRDG 261354Z 02006KT 4SM RA BR BKN008 OVC027 02/01 A3009 RMK AO2 SLP197
                 P0011 T00220006 =
2014-11-26 08:14 METAR KRDG 261314Z 02007KT 5SM RA BR BKN008 OVC027 03/01 A3011 RMK AO2 P0003
                 T00280006 =
2014-11-26 07:54 METAR KRDG 261254Z 03011KT 9SM -RA OVC025 03/01 A3009 RMK AO2 SLP196 P0003
                 T00330006 =
2014-11-26 07:30 METAR KRDG 261230Z 04008G17KT 9SM -RA OVC027 04/00 A3011 RMK AO2 P0001 T00390000
                 =
2014-11-26 06:54 METAR KRDG 261154Z 04007KT 10SM -RA OVC037 06/00 A3013 RMK AO2 SLP209 P0001
                 60001 70001 T00560000 10067 20039 55013 =
2014-11-26 05:54 METAR KRDG 261054Z 03007KT 10SM -RA OVC048 06/00 A3009 RMK AO2 RAB42 SLP194
                 P0000 T00560000 =
2014-11-26 04:54 METAR KRDG 260954Z 02005KT 10SM OVC070 05/M01 A3011 RMK AO2 SLP203 T00501006 =
2014-11-26 03:54 METAR KRDG 260854Z 00000KT 10SM OVC080 05/00 A3016 RMK AO2 SLP221 T00500000
                 50000 =
2014-11-26 02:54 METAR KRDG 260754Z 00000KT 10SM SCT090 OVC110 04/00 A3017 RMK AO2 SLP222
                 T00440000 =
2014-11-26 01:54 METAR KRDG 260654Z 00000KT 10SM CLR 04/M01 A3019 RMK AO2 SLP231 T00441006 =
2014-11-26 00:54 METAR KRDG 260554Z 34003KT 10SM CLR 04/00 A3016 RMK AO2 SLP220 T00440000 10083
                 20033 51012 =
2014-11-25 23:54 METAR KRDG 260454Z 04003KT 10SM CLR 03/00 A3016 RMK AO2 SLP220 T00330000
                 401670033 =
2014-11-25 22:54 METAR KRDG 260354Z 00000KT 10SM CLR 04/M01 A3015 =
2014-11-25 21:54 METAR KRDG 260254Z 34003KT 10SM CLR 04/M01 A3013 RMK AO2 SLP208 T00391011 51015
                 =
2014-11-25 20:54 METAR KRDG 260154Z 00000KT 10SM CLR 04/M02 A3012 RMK AO2 SLP204 T00441017 =
2014-11-25 19:54 METAR KRDG 260054Z 00000KT 10SM CLR 07/M02 A3010 RMK AO2 SLP199 T00671022 =
2014-11-25 18:54 METAR KRDG 252354Z 00000KT 10SM CLR 08/M02 A3008 RMK AO2 SLP193 T00781022 10128
                 20067 53021 =
2014-11-25 17:54 METAR KRDG 252254Z 00000KT 10SM CLR 09/M02 A3005 RMK AO2 SLP182 T00941022 =
2014-11-25 16:54 METAR KRDG 252154Z 26005KT 10SM CLR 10/M03 A3003 RMK AO2 SLP174 T01001028 =

Support USWX by starting your Amazon purchase here.